createdAt,value
2023-04-07T00:01:22.456Z,3.97
2023-04-07T00:06:25.767Z,3.90
2023-04-07T00:11:29.259Z,3.60
2023-04-07T00:16:33.893Z,3.37
2023-04-07T00:21:37.192Z,3.20
2023-04-07T00:26:40.826Z,3.33
2023-04-07T00:31:45.517Z,3.43
2023-04-07T00:36:52.323Z,3.40
2023-04-07T00:41:56.576Z,3.23
2023-04-07T00:47:01.657Z,3.17
2023-04-07T00:52:06.331Z,3.60
2023-04-07T00:57:09.644Z,3.57
2023-04-07T01:02:20.215Z,3.70
2023-04-07T01:07:28.035Z,3.30
2023-04-07T01:12:39.694Z,3.60
2023-04-07T01:17:49.207Z,3.47
2023-04-07T01:22:56.409Z,3.50
2023-04-07T01:28:29.142Z,3.80
2023-04-07T01:33:36.592Z,3.97
2023-04-07T01:38:41.351Z,4.00
2023-04-07T01:43:46.246Z,3.67
2023-04-07T01:48:52.770Z,3.73
2023-04-07T01:53:56.726Z,4.30
2023-04-07T01:59:00.207Z,3.53
2023-04-07T02:04:12.642Z,4.00
2023-04-07T02:09:18.135Z,4.00
2023-04-07T02:14:24.476Z,3.80
2023-04-07T02:19:30.580Z,4.00
2023-04-07T02:24:36.460Z,4.20
2023-04-07T02:29:39.749Z,4.07
2023-04-07T02:34:44.508Z,4.10
2023-04-07T02:39:47.808Z,4.03
2023-04-07T02:44:51.117Z,4.17
2023-04-07T02:49:55.787Z,3.93
2023-04-07T02:54:59.097Z,3.90
2023-04-07T03:00:02.588Z,4.23
2023-04-07T03:05:08.305Z,3.70
2023-04-07T03:10:12.510Z,4.10
2023-04-07T03:15:17.661Z,4.00
2023-04-07T03:20:23.654Z,4.30
2023-04-07T03:25:27.630Z,4.00
2023-04-07T03:30:30.928Z,4.20
2023-04-07T03:35:35.724Z,4.07
2023-04-07T03:40:39.422Z,4.37
2023-04-07T03:45:42.918Z,5.47
2023-04-07T03:50:48.130Z,4.87
2023-04-07T03:55:52.367Z,4.77
2023-04-07T04:00:55.822Z,4.83
2023-04-07T04:06:00.469Z,4.43
2023-04-07T04:11:03.744Z,4.43
2023-04-07T04:16:08.060Z,4.80
2023-04-07T04:21:12.847Z,4.83
2023-04-07T04:26:16.207Z,4.40
2023-04-07T04:31:19.582Z,4.13
2023-04-07T04:36:24.363Z,4.87
2023-04-07T04:41:27.638Z,4.80
2023-04-07T04:46:32.018Z,5.20
2023-04-07T04:51:36.755Z,4.80
2023-04-07T04:56:40.078Z,5.00
2023-04-07T05:01:43.530Z,5.03
2023-04-07T05:06:48.265Z,5.30
2023-04-07T05:11:51.450Z,5.33
2023-04-07T05:16:54.838Z,5.20
2023-04-07T05:21:59.754Z,5.10
2023-04-07T05:27:02.968Z,5.17
2023-04-07T05:32:06.859Z,5.37
2023-04-07T05:37:11.826Z,5.23
2023-04-07T05:42:15.104Z,5.37
2023-04-07T05:47:18.400Z,6.30
2023-04-07T05:52:23.224Z,5.70
2023-04-07T05:57:28.208Z,6.33
2023-04-07T06:02:31.706Z,7.00
2023-04-07T06:07:36.574Z,7.40
2023-04-07T06:12:39.839Z,6.70
2023-04-07T06:17:44.029Z,7.13
2023-04-07T06:22:48.860Z,6.23
2023-04-07T06:27:52.109Z,6.80
2023-04-07T06:32:55.370Z,5.77
2023-04-07T06:38:00.115Z,5.67
2023-04-07T06:43:04.195Z,5.87
2023-04-07T06:48:08.117Z,5.80
2023-04-07T06:53:12.928Z,6.87
2023-04-07T06:58:16.309Z,6.20
2023-04-07T07:03:19.963Z,5.80
2023-04-07T07:08:24.856Z,5.77
2023-04-07T07:13:28.493Z,5.80
2023-04-07T07:18:31.987Z,6.90
2023-04-07T07:23:36.698Z,6.27
2023-04-07T07:28:39.987Z,6.20
2023-04-07T07:33:44.309Z,6.23
2023-04-07T07:38:50.719Z,6.50
2023-04-07T07:43:54.143Z,6.87
2023-04-07T07:48:57.425Z,6.20
2023-04-07T07:54:02.029Z,5.43
2023-04-07T07:59:06.546Z,5.50
2023-04-07T08:04:10.183Z,5.10
2023-04-07T08:09:14.976Z,5.63
2023-04-07T08:14:18.344Z,5.73
2023-04-07T08:19:21.529Z,5.47
2023-04-07T08:24:26.168Z,5.83
2023-04-07T08:29:30.615Z,5.70
2023-04-07T08:34:34.494Z,5.10
2023-04-07T08:39:39.060Z,5.20
2023-04-07T08:44:42.350Z,4.90
2023-04-07T08:49:46.633Z,5.70
2023-04-07T08:54:53.352Z,5.07
2023-04-07T08:59:57.892Z,5.20
2023-04-07T09:05:01.602Z,5.00
2023-04-07T09:10:07.586Z,5.10
2023-04-07T09:15:11.042Z,5.43
2023-04-07T09:20:14.319Z,5.30
2023-04-07T09:25:22.902Z,4.80
2023-04-07T09:30:26.302Z,5.00
2023-04-07T09:35:30.151Z,5.07
2023-04-07T09:40:35.327Z,5.20
2023-04-07T09:45:39.535Z,5.17
2023-04-07T09:50:46.011Z,5.30
2023-04-07T09:55:51.356Z,4.80
2023-04-07T10:00:54.920Z,4.67
2023-04-07T10:05:58.801Z,4.93
2023-04-07T10:11:04.782Z,4.70
2023-04-07T10:16:09.461Z,3.67
2023-04-07T10:21:15.427Z,3.90
2023-04-07T10:26:23.931Z,4.13
2023-04-07T10:31:27.633Z,4.70
2023-04-07T10:36:31.070Z,5.03
2023-04-07T10:41:37.004Z,4.70
2023-04-07T10:47:05.826Z,5.20
2023-04-07T10:52:25.500Z,5.50
2023-04-07T10:57:30.464Z,5.03
2023-04-07T11:02:38.661Z,5.03
2023-04-07T11:07:51.248Z,5.00
2023-04-07T11:13:04.249Z,4.60
2023-04-07T11:18:17.285Z,4.73
2023-04-07T11:23:23.196Z,4.07
2023-04-07T11:28:28.530Z,3.77
2023-04-07T11:33:35.121Z,3.23
2023-04-07T11:38:40.014Z,3.47
2023-04-07T11:43:44.981Z,3.53
2023-04-07T11:48:48.656Z,3.10
2023-04-07T11:53:57.577Z,3.33
2023-04-07T11:59:02.905Z,3.70
2023-04-07T12:04:06.597Z,4.03
2023-04-07T12:09:27.932Z,4.07
2023-04-07T12:14:33.191Z,4.47
2023-04-07T12:19:39.717Z,4.80
2023-04-07T12:24:43.345Z,4.20
2023-04-07T12:29:49.068Z,4.73
2023-04-07T12:34:52.667Z,4.37
2023-04-07T12:39:56.110Z,4.20
2023-04-07T12:45:01.036Z,4.63
2023-04-07T12:50:05.058Z,3.90
2023-04-07T12:55:09.109Z,3.97
2023-04-07T13:00:15.176Z,4.10
2023-04-07T13:05:18.914Z,3.50
2023-04-07T13:10:22.716Z,3.27
2023-04-07T13:15:28.696Z,3.40
2023-04-07T13:20:32.217Z,3.83
2023-04-07T13:25:35.852Z,3.40
2023-04-07T13:30:41.852Z,3.63
2023-04-07T13:35:45.351Z,3.07
2023-04-07T13:40:49.846Z,3.17
2023-04-07T13:45:56.589Z,3.30
2023-04-07T13:51:00.470Z,3.37
2023-04-07T13:56:06.174Z,3.33
2023-04-07T14:01:11.585Z,2.97
2023-04-07T14:06:15.050Z,3.37
2023-04-07T14:11:19.135Z,3.40
2023-04-07T14:16:24.116Z,3.10
2023-04-07T14:21:28.737Z,3.27
2023-04-07T14:26:32.135Z,2.73
2023-04-07T14:31:37.124Z,3.00
2023-04-07T14:36:40.380Z,2.90
2023-04-07T14:41:43.620Z,4.83
2023-04-07T14:46:48.477Z,3.13
2023-04-07T14:51:52.089Z,3.33
2023-04-07T14:56:55.423Z,3.50
2023-04-07T15:02:00.382Z,3.10
2023-04-07T15:07:03.832Z,3.60
2023-04-07T15:12:07.181Z,2.77
2023-04-07T15:17:11.950Z,2.97
2023-04-07T15:22:15.496Z,4.53
2023-04-07T15:27:19.130Z,5.27
2023-04-07T15:32:23.838Z,3.17
2023-04-07T15:37:27.298Z,3.00
2023-04-07T15:42:31.974Z,2.80
2023-04-07T15:47:36.635Z,2.83
2023-04-07T15:52:39.985Z,3.40
2023-04-07T15:57:43.275Z,4.00
2023-04-07T16:02:48.035Z,3.03
2023-04-07T16:07:51.512Z,4.30
2023-04-07T16:12:54.813Z,2.80
2023-04-07T16:17:59.830Z,2.80
2023-04-07T16:23:03.197Z,2.43
2023-04-07T16:28:06.530Z,3.20
2023-04-07T16:33:11.200Z,3.10
2023-04-07T16:38:14.644Z,3.47
2023-04-07T16:43:18.009Z,3.30
2023-04-07T16:48:22.775Z,3.30
2023-04-07T16:53:26.180Z,3.30
2023-04-07T16:58:29.447Z,3.23
2023-04-07T17:03:34.412Z,3.50
2023-04-07T17:08:39.464Z,3.87
2023-04-07T17:13:42.753Z,4.30
2023-04-07T17:18:48.122Z,4.60
2023-04-07T17:23:51.851Z,4.13
2023-04-07T17:28:55.236Z,4.37
2023-04-07T17:33:59.962Z,3.90
2023-04-07T17:39:03.466Z,4.80
2023-04-07T17:44:07.021Z,4.67
2023-04-07T17:49:11.732Z,4.17
2023-04-07T17:54:15.115Z,4.47
2023-04-07T17:59:18.378Z,3.93
2023-04-07T18:04:23.155Z,3.93
2023-04-07T18:09:26.961Z,4.17
2023-04-07T18:14:30.455Z,3.80
2023-04-07T18:19:35.211Z,4.03
2023-04-07T18:24:38.772Z,4.13
2023-04-07T18:29:42.216Z,4.03
2023-04-07T18:34:50.622Z,3.97
2023-04-07T18:39:54.667Z,3.63
2023-04-07T18:44:58.123Z,3.90
2023-04-07T18:50:03.552Z,4.17
2023-04-07T18:55:09.169Z,4.57
2023-04-07T19:00:13.188Z,3.47
2023-04-07T19:05:20.984Z,3.70
2023-04-07T19:10:25.847Z,3.63
2023-04-07T19:15:29.501Z,3.93
2023-04-07T19:20:34.494Z,4.10
2023-04-07T19:25:38.504Z,4.00
2023-04-07T19:30:42.419Z,3.33
2023-04-07T19:35:47.102Z,4.10
2023-04-07T19:40:50.428Z,4.03
2023-04-07T19:45:54.349Z,3.40
2023-04-07T19:50:59.071Z,3.40
2023-04-07T19:56:04.565Z,3.57
2023-04-07T20:01:15.776Z,3.67
2023-04-07T20:06:24.777Z,4.17
2023-04-07T20:11:28.446Z,3.67
2023-04-07T20:16:32.998Z,3.80
2023-04-07T20:21:37.810Z,4.00
2023-04-07T20:26:41.250Z,4.20
2023-04-07T20:31:44.696Z,4.03
2023-04-07T20:36:50.012Z,3.57
2023-04-07T20:41:53.204Z,4.07
2023-04-07T20:46:56.454Z,3.90
2023-04-07T20:52:01.071Z,4.10
2023-04-07T20:57:04.333Z,4.10
2023-04-07T21:02:08.161Z,3.80
2023-04-07T21:07:12.761Z,4.23
2023-04-07T21:12:16.078Z,4.07
2023-04-07T21:17:20.593Z,3.83
2023-04-07T21:22:25.452Z,4.33
2023-04-07T21:27:30.551Z,4.10
2023-04-07T21:32:34.282Z,4.83
2023-04-07T21:37:39.038Z,4.37
2023-04-07T21:42:42.650Z,4.17
2023-04-07T21:47:46.948Z,4.63
2023-04-07T21:52:52.206Z,4.67
2023-04-07T21:57:55.617Z,4.97
2023-04-07T22:02:59.134Z,4.67
2023-04-07T22:08:04.355Z,5.10
2023-04-07T22:13:07.680Z,5.00
2023-04-07T22:18:12.835Z,5.43
2023-04-07T22:23:18.088Z,5.30
2023-04-07T22:28:21.378Z,5.10
2023-04-07T22:33:27.099Z,5.03
2023-04-07T22:38:32.025Z,5.30
2023-04-07T22:43:35.360Z,5.40
2023-04-07T22:48:38.637Z,5.60
2023-04-07T22:53:43.297Z,5.23
2023-04-07T22:58:46.647Z,5.90
2023-04-07T23:03:49.981Z,6.20
2023-04-07T23:08:54.674Z,5.57
2023-04-07T23:13:57.930Z,6.33
2023-04-07T23:19:01.340Z,6.20
2023-04-07T23:24:06.107Z,5.70
2023-04-07T23:29:09.311Z,5.90
2023-04-07T23:34:12.560Z,5.90
2023-04-07T23:39:17.217Z,6.73
2023-04-07T23:44:20.789Z,6.13
2023-04-07T23:49:24.023Z,5.93
2023-04-07T23:54:28.919Z,6.07
2023-04-07T23:59:32.228Z,6.37
